Terminal Aerodrome Forecast
Issued by NWS Cleveland, OH

Home | Current Version | Previous Version | Text Only | Print | Product List | Glossary On
Versions: 1 2 3 4 5 6 7 8 9 10 11 12 13 14 15 16 17 18 19
340
FTUS41 KCLE 040203 AAA
TAFMFD
TAF AMD
KMFD 040203Z 0402/0424 VRB03KT P6SM OVC030
     FM040600 VRB03KT P6SM BKN035
     FM041400 14008KT P6SM OVC100
     FM042200 12006KT P6SM -RA BKN050=

USA.gov is the U.S. government's official web portal to all federal, state and local government web resources and services.